Time;durP1;ratioP1;P1;durP2;ratioP2;P2;SDS_P1;SDS_P2;PMS_P1;PMS_P2;Temp;Humidity;BMP_temperature;BMP_pressure;BME280_temperature;BME280_humidity;BME280_pressure;Samples;Min_cycle;Max_cycle;Signal;HPM_P1;HPM_P2
2022/07/18 00:00:06;;;;;;;4.93;2.30;;;14.90;23.50;;;;;;5015292;28;20536;-51
2022/07/18 00:02:33;;;;;;;2.53;1.77;;;14.80;72.70;;;;;;5012423;28;20571;-51
2022/07/18 00:05:01;;;;;;;3.77;2.20;;;14.80;73.20;;;;;;5011523;28;20483;-51
2022/07/18 00:07:28;;;;;;;2.80;1.80;;;14.90;96.00;;;;;;5008788;28;20510;-52
2022/07/18 00:09:54;;;;;;;3.40;2.10;;;14.80;99.90;;;;;;5014716;28;20595;-52
2022/07/18 00:12:21;;;;;;;4.53;1.63;;;14.90;99.90;;;;;;5019046;28;20486;-52
2022/07/18 00:14:48;;;;;;;2.03;1.83;;;14.90;99.90;;;;;;5014374;28;20460;-52
2022/07/18 00:17:14;;;;;;;5.87;2.00;;;14.90;99.90;;;;;;5009216;28;20504;-51
2022/07/18 00:19:41;;;;;;;2.10;1.53;;;14.90;99.90;;;;;;5019480;28;20523;-53
2022/07/18 00:22:09;;;;;;;1.50;1.40;;;14.90;99.90;;;;;;5008260;28;20574;-52
2022/07/18 00:24:37;;;;;;;1.90;1.60;;;14.80;99.90;;;;;;5012692;28;20496;-52
2022/07/18 00:27:04;;;;;;;2.50;2.03;;;14.80;99.90;;;;;;5007036;28;20483;-52
2022/07/18 00:29:31;;;;;;;1.97;1.80;;;14.80;99.90;;;;;;5011426;28;20578;-51
2022/07/18 00:31:57;;;;;;;3.30;2.00;;;14.80;99.90;;;;;;5020044;28;20490;-51
2022/07/18 00:34:24;;;;;;;3.17;1.70;;;14.80;99.90;;;;;;5016643;28;20463;-53
2022/07/18 00:36:50;;;;;;;6.03;2.27;;;14.70;99.90;;;;;;5011577;28;20467;-53
2022/07/18 00:39:18;;;;;;;2.53;2.13;;;14.70;99.90;;;;;;5016717;28;20478;-52
2022/07/18 00:41:48;;;;;;;3.50;2.40;;;14.70;99.90;;;;;;5020060;28;20466;-52
2022/07/18 00:44:19;;;;;;;2.20;2.10;;;14.70;99.90;;;;;;5010667;28;20495;-51
2022/07/18 00:46:46;;;;;;;2.00;1.87;;;14.70;99.90;;;;;;5011803;28;20516;-52
2022/07/18 00:49:13;;;;;;;2.17;1.97;;;14.70;99.90;;;;;;5010812;28;20483;-52
2022/07/18 00:51:39;;;;;;;2.97;1.90;;;14.70;99.90;;;;;;5011628;28;20468;-52
2022/07/18 00:54:06;;;;;;;5.07;2.40;;;14.70;99.90;;;;;;5008581;28;20463;-53
2022/07/18 00:56:34;;;;;;;4.60;2.20;;;14.70;99.90;;;;;;5018222;28;20466;-51
2022/07/18 00:59:01;;;;;;;2.00;1.90;;;14.70;99.90;;;;;;5022457;28;20458;-53
2022/07/18 01:01:42;;;;;;;2.00;1.90;;;14.70;99.90;;;;;;5006831;28;20472;-52
2022/07/18 01:04:09;;;;;;;2.07;1.73;;;14.70;99.90;;;;;;5010024;28;20521;-52
2022/07/18 01:06:36;;;;;;;1.83;1.73;;;14.70;99.90;;;;;;5014395;28;20597;-52
2022/07/18 01:09:03;;;;;;;2.17;2.07;;;14.70;99.90;;;;;;5008064;28;20545;-51
2022/07/18 01:11:29;;;;;;;3.23;2.17;;;14.70;99.90;;;;;;5013524;28;20496;-52
2022/07/18 01:13:57;;;;;;;2.93;2.13;;;14.70;99.90;;;;;;5016754;28;20456;-52
2022/07/18 01:16:24;;;;;;;7.30;2.70;;;14.70;99.90;;;;;;5009579;28;20563;-52
2022/07/18 01:18:51;;;;;;;3.17;2.17;;;14.60;99.90;;;;;;5006152;28;20500;-51
2022/07/18 01:21:19;;;;;;;5.40;2.33;;;14.60;99.90;;;;;;5003352;28;20519;-52
2022/07/18 01:23:46;;;;;;;2.53;2.23;;;14.50;99.90;;;;;;5016501;28;20488;-51
2022/07/18 01:26:15;;;;;;;8.27;2.47;;;14.50;99.90;;;;;;5017762;28;20510;-52
2022/07/18 01:28:42;;;;;;;2.60;2.07;;;14.40;99.90;;;;;;5003769;28;21025;-51
2022/07/18 01:31:09;;;;;;;3.93;2.33;;;14.40;99.90;;;;;;5012671;28;20484;-51
2022/07/18 01:33:36;;;;;;;4.33;2.70;;;14.40;99.90;;;;;;5010474;28;20514;-52
2022/07/18 01:36:05;;;;;;;3.50;2.23;;;14.30;99.90;;;;;;4997371;28;21108;-52
2022/07/18 01:38:34;;;;;;;5.47;2.77;;;14.30;99.90;;;;;;5010203;28;20463;-51
2022/07/18 01:41:00;;;;;;;3.77;2.30;;;14.30;99.90;;;;;;5014013;28;20494;-51
2022/07/18 01:43:28;;;;;;;7.30;2.10;;;14.20;99.90;;;;;;5010496;28;20973;-52
2022/07/18 01:45:55;;;;;;;2.80;2.40;;;14.10;99.90;;;;;;5008805;28;20495;-51
2022/07/18 01:48:23;;;;;;;3.00;2.60;;;14.10;99.90;;;;;;5012752;28;20979;-52
2022/07/18 01:50:50;;;;;;;2.43;2.20;;;14.10;99.90;;;;;;5005012;28;20494;-52
2022/07/18 01:53:16;;;;;;;2.40;2.20;;;13.90;99.90;;;;;;5025820;28;20489;-51
2022/07/18 01:55:44;;;;;;;2.50;2.27;;;13.90;99.90;;;;;;5005013;28;20514;-52
2022/07/18 01:58:11;;;;;;;3.53;2.37;;;13.80;99.90;;;;;;5010697;28;20518;-52
2022/07/18 02:00:37;;;;;;;5.93;2.70;;;13.80;99.90;;;;;;5005143;28;21037;-53
2022/07/18 02:03:04;;;;;;;3.00;2.20;;;13.70;99.90;;;;;;5015513;28;20530;-52
2022/07/18 02:05:31;;;;;;;2.30;2.10;;;13.70;99.90;;;;;;5009083;28;20877;-52
2022/07/18 02:07:57;;;;;;;5.90;2.47;;;13.70;99.90;;;;;;5009675;28;20468;-52
2022/07/18 02:10:24;;;;;;;4.47;2.57;;;13.60;99.90;;;;;;5009031;28;20497;-52
2022/07/18 02:12:52;;;;;;;4.17;2.40;;;13.60;99.90;;;;;;5010216;28;21050;-52
2022/07/18 02:15:19;;;;;;;3.63;2.43;;;13.40;99.90;;;;;;5016015;28;20463;-51
2022/07/18 02:17:45;;;;;;;2.93;2.50;;;13.40;99.90;;;;;;5016820;28;20459;-51
2022/07/18 02:20:14;;;;;;;2.40;2.00;;;13.40;99.90;;;;;;5018001;28;20490;-52
2022/07/18 02:22:40;;;;;;;6.67;2.10;;;13.30;99.90;;;;;;5019435;28;20960;-53
2022/07/18 02:25:09;;;;;;;2.93;2.20;;;13.20;99.90;;;;;;5012936;28;20546;-52
2022/07/18 02:27:36;;;;;;;2.80;2.40;;;13.20;99.90;;;;;;5019960;28;20487;-51
2022/07/18 02:30:04;;;;;;;2.10;2.00;;;13.20;99.90;;;;;;5014984;28;20486;-51
2022/07/18 02:32:31;;;;;;;3.80;2.07;;;13.20;99.90;;;;;;5011057;28;20468;-51
2022/07/18 02:34:58;;;;;;;6.40;2.30;;;13.10;99.90;;;;;;5012214;28;21019;-52
2022/07/18 02:37:25;;;;;;;6.77;2.53;;;13.10;99.90;;;;;;5013078;28;20513;-52
2022/07/18 02:39:51;;;;;;;6.30;2.53;;;13.00;99.90;;;;;;5011149;28;20985;-52
2022/07/18 02:42:18;;;;;;;3.70;2.60;;;12.90;99.90;;;;;;5012757;28;20463;-51
2022/07/18 02:44:45;;;;;;;3.53;2.23;;;13.00;99.90;;;;;;5022679;28;20466;-53
2022/07/18 02:47:13;;;;;;;2.83;2.07;;;12.90;99.90;;;;;;5009957;28;20471;-52
2022/07/18 02:49:40;;;;;;;4.33;2.27;;;12.90;99.90;;;;;;5012229;28;20890;-52
2022/07/18 02:52:08;;;;;;;2.70;2.50;;;12.80;99.90;;;;;;5013061;28;20464;-52
2022/07/18 02:54:38;;;;;;;2.83;2.57;;;12.80;99.90;;;;;;5011860;28;20463;-52
2022/07/18 02:57:05;;;;;;;5.17;2.57;;;12.70;99.90;;;;;;5017575;28;20506;-53
2022/07/18 02:59:32;;;;;;;4.97;2.60;;;12.70;99.90;;;;;;5013148;28;20483;-52
2022/07/18 03:01:59;;;;;;;2.50;2.30;;;12.70;99.90;;;;;;5013315;28;20463;-52
2022/07/18 03:04:27;;;;;;;4.07;2.60;;;12.60;99.90;;;;;;5018923;28;20532;-52
2022/07/18 03:06:53;;;;;;;2.20;2.10;;;12.50;99.90;;;;;;5022992;28;20478;-52
2022/07/18 03:09:20;;;;;;;5.23;2.57;;;12.50;99.90;;;;;;5013263;28;20483;-52
2022/07/18 03:11:48;;;;;;;2.97;2.77;;;12.50;99.90;;;;;;5013870;28;20452;-52
2022/07/18 03:14:15;;;;;;;5.40;2.30;;;12.50;99.90;;;;;;5017377;28;20867;-52
2022/07/18 03:16:41;;;;;;;7.50;2.60;;;12.50;99.90;;;;;;5017132;28;20439;-52
2022/07/18 03:19:08;;;;;;;3.80;2.13;;;12.60;99.90;;;;;;5008800;28;20525;-51
2022/07/18 03:21:36;;;;;;;5.33;2.93;;;12.60;99.90;;;;;;5065991;23;20558;-49
2022/07/18 03:24:02;;;;;;;4.03;2.93;;;12.50;99.90;;;;;;5047765;28;20862;-49
2022/07/18 03:26:29;;;;;;;4.30;2.30;;;12.50;99.90;;;;;;5053284;28;20482;-50
2022/07/18 03:28:55;;;;;;;3.37;2.60;;;12.60;99.90;;;;;;5050573;28;20969;-50
2022/07/18 03:31:22;;;;;;;2.77;2.47;;;12.60;99.90;;;;;;5042053;28;20551;-49
2022/07/18 03:33:49;;;;;;;3.43;3.07;;;12.50;99.90;;;;;;5036939;28;20470;-50
2022/07/18 03:36:16;;;;;;;2.73;2.30;;;12.50;99.90;;;;;;5038310;28;20971;-49
2022/07/18 03:38:44;;;;;;;2.63;2.43;;;12.50;99.90;;;;;;5037683;28;20835;-50
2022/07/18 03:41:11;;;;;;;3.00;2.43;;;12.50;99.90;;;;;;5045119;28;20531;-49
2022/07/18 03:43:38;;;;;;;2.47;2.27;;;12.40;99.90;;;;;;5040544;28;20596;-50
2022/07/18 03:46:05;;;;;;;7.50;2.57;;;12.50;99.90;;;;;;5035520;28;20458;-49
2022/07/18 03:48:31;;;;;;;3.10;2.50;;;12.40;99.90;;;;;;5026053;28;20480;-50
2022/07/18 03:50:58;;;;;;;3.10;2.67;;;12.40;99.90;;;;;;5030309;28;20486;-49
2022/07/18 03:53:25;;;;;;;2.93;2.43;;;12.40;99.90;;;;;;5028646;28;20454;-49
2022/07/18 03:55:53;;;;;;;2.63;2.03;;;12.50;99.90;;;;;;5033576;28;20508;-50
2022/07/18 03:58:19;;;;;;;4.03;2.43;;;12.50;99.90;;;;;;5031814;28;20512;-49
2022/07/18 04:00:46;;;;;;;7.63;3.03;;;12.40;99.90;;;;;;5032769;28;20474;-50
2022/07/18 04:03:12;;;;;;;5.50;2.73;;;12.50;99.90;;;;;;5035380;28;20584;-50
2022/07/18 04:05:39;;;;;;;5.07;2.33;;;12.50;99.90;;;;;;5032020;28;20459;-50
2022/07/18 04:08:06;;;;;;;2.37;2.17;;;12.40;99.90;;;;;;5032227;28;20531;-50
2022/07/18 04:10:32;;;;;;;4.83;2.80;;;12.40;99.90;;;;;;5030005;28;20544;-49
2022/07/18 04:13:00;;;;;;;5.53;3.10;;;12.40;99.90;;;;;;5032920;28;20458;-49
2022/07/18 04:15:27;;;;;;;2.50;2.40;;;12.40;99.90;;;;;;5031679;28;20973;-49
2022/07/18 04:17:54;;;;;;;2.40;2.20;;;12.50;99.90;;;;;;5033718;28;20451;-50
2022/07/18 04:20:22;;;;;;;2.87;2.60;;;12.50;99.90;;;;;;5022275;28;20905;-50
2022/07/18 04:22:50;;;;;;;11.50;2.73;;;12.50;99.90;;;;;;5031778;28;20597;-49
2022/07/18 04:25:17;;;;;;;3.70;2.43;;;12.60;99.90;;;;;;5040125;28;20462;-50
2022/07/18 04:27:44;;;;;;;4.27;2.57;;;12.60;99.90;;;;;;5042646;28;20490;-50
2022/07/18 04:30:12;;;;;;;2.53;2.43;;;12.60;99.90;;;;;;5031445;28;20539;-50
2022/07/18 04:32:39;;;;;;;2.93;2.53;;;12.70;99.90;;;;;;5028639;28;20471;-51
2022/07/18 04:35:07;;;;;;;8.83;3.40;;;12.70;99.90;;;;;;5038933;28;20956;-50
2022/07/18 04:37:34;;;;;;;2.83;2.63;;;12.70;99.90;;;;;;5040458;28;20687;-50
2022/07/18 04:40:02;;;;;;;2.57;2.37;;;12.80;99.90;;;;;;5031495;28;21046;-50
2022/07/18 04:42:30;;;;;;;3.20;2.60;;;12.90;99.90;;;;;;5038017;28;20470;-50
2022/07/18 04:44:57;;;;;;;3.93;2.67;;;12.90;99.90;;;;;;5030890;28;20470;-50
2022/07/18 04:47:25;;;;;;;2.50;2.30;;;13.00;1.40;;;;;;5032721;28;20856;-50
2022/07/18 04:49:52;;;;;;;2.97;2.50;;;13.10;99.90;;;;;;5033727;28;20491;-49
2022/07/18 04:52:18;;;;;;;4.97;2.50;;;13.20;99.90;;;;;;5038812;28;20484;-50
2022/07/18 04:54:45;;;;;;;4.30;2.57;;;13.30;99.90;;;;;;5032009;28;20536;-51
2022/07/18 04:57:14;;;;;;;3.60;2.70;;;13.30;99.90;;;;;;5032389;28;20924;-50
2022/07/18 04:59:41;;;;;;;3.27;2.57;;;13.40;99.90;;;;;;5037746;28;20459;-49
2022/07/18 05:02:08;;;;;;;3.60;2.77;;;13.50;99.90;;;;;;5026935;28;20463;-50
2022/07/18 05:04:38;;;;;;;4.77;2.90;;;13.60;99.90;;;;;;5036770;28;20459;-50
2022/07/18 05:07:06;;;;;;;2.97;2.67;;;13.60;99.90;;;;;;5030749;28;20479;-50
2022/07/18 05:09:33;;;;;;;18.77;3.17;;;13.70;99.90;;;;;;5031363;28;20593;-51
2022/07/18 05:11:59;;;;;;;8.73;2.63;;;13.90;99.90;;;;;;5027199;28;20508;-49
2022/07/18 05:14:26;;;;;;;5.63;3.27;;;13.90;99.90;;;;;;5032324;28;20893;-51
2022/07/18 05:16:52;;;;;;;9.90;3.47;;;14.00;99.90;;;;;;5030148;28;20489;-50
2022/07/18 05:19:19;;;;;;;11.47;2.87;;;14.10;99.90;;;;;;5035413;28;20947;-50
2022/07/18 05:21:47;;;;;;;5.73;2.53;;;14.20;99.90;;;;;;5028679;28;20544;-50
2022/07/18 05:24:14;;;;;;;7.70;3.57;;;14.30;99.90;;;;;;5029276;28;20542;-49
2022/07/18 05:26:40;;;;;;;3.23;2.93;;;14.40;99.90;;;;;;5031040;28;20462;-49
2022/07/18 05:29:07;;;;;;;3.40;3.10;;;14.60;99.90;;;;;;5044432;28;20450;-50
2022/07/18 05:31:34;;;;;;;7.30;2.73;;;14.70;99.90;;;;;;5035115;28;20545;-49
2022/07/18 05:34:01;;;;;;;6.80;3.03;;;14.90;99.90;;;;;;5030554;28;20508;-49
2022/07/18 05:36:27;;;;;;;7.10;2.50;;;15.00;99.90;;;;;;5023842;28;20897;-50
2022/07/18 05:38:55;;;;;;;2.80;2.50;;;15.20;99.90;;;;;;5031796;28;20501;-50
2022/07/18 05:41:22;;;;;;;3.70;2.60;;;15.30;99.90;;;;;;5032867;28;20532;-50
2022/07/18 05:43:48;;;;;;;4.27;2.50;;;15.50;99.90;;;;;;5030235;28;20516;-50
2022/07/18 05:46:15;;;;;;;3.90;3.10;;;15.60;99.90;;;;;;5041693;28;20462;-49
2022/07/18 05:48:41;;;;;;;3.23;2.40;;;15.70;99.90;;;;;;5044928;28;21072;-50
2022/07/18 05:51:08;;;;;;;3.03;2.37;;;15.90;99.90;;;;;;5032022;28;20539;-49
2022/07/18 05:53:35;;;;;;;3.37;2.60;;;16.00;99.90;;;;;;5042290;28;20465;-49
2022/07/18 05:56:03;;;;;;;6.40;2.30;;;16.20;22.50;;;;;;5038391;28;20457;-49
2022/07/18 05:58:29;;;;;;;8.13;2.80;;;16.30;40.40;;;;;;5035221;28;20508;-50
2022/07/18 06:00:56;;;;;;;10.10;3.00;;;16.50;42.20;;;;;;5037596;28;20878;-51
2022/07/18 06:03:23;;;;;;;16.30;3.40;;;16.60;34.70;;;;;;5021629;28;20458;-49
2022/07/18 06:05:49;;;;;;;22.77;3.83;;;16.70;33.60;;;;;;5029154;28;20466;-50
2022/07/18 06:08:17;;;;;;;9.73;2.27;;;16.80;38.70;;;;;;5031045;28;20479;-49
2022/07/18 06:10:43;;;;;;;36.93;3.90;;;16.90;46.70;;;;;;5030391;28;20573;-50
2022/07/18 06:13:11;;;;;;;14.10;2.63;;;17.00;51.30;;;;;;5030657;28;20447;-50
2022/07/18 06:15:38;;;;;;;7.53;2.37;;;17.10;55.00;;;;;;5030472;28;20873;-50
2022/07/18 06:18:05;;;;;;;8.50;2.63;;;17.30;60.30;;;;;;5019164;28;20482;-50
2022/07/18 06:20:31;;;;;;;2.60;2.20;;;17.40;62.60;;;;;;5031778;28;21034;-50
2022/07/18 06:22:58;;;;;;;6.93;2.40;;;17.50;64.10;;;;;;5035286;28;20471;-50
2022/07/18 06:25:24;;;;;;;4.13;2.50;;;17.60;66.20;;;;;;5029264;28;20521;-50
2022/07/18 06:27:51;;;;;;;3.63;2.53;;;17.70;66.50;;;;;;5041448;28;20979;-50
2022/07/18 06:30:19;;;;;;;3.43;2.07;;;17.70;74.00;;;;;;5046518;28;20474;-50
2022/07/18 06:32:45;;;;;;;2.90;2.00;;;17.80;84.70;;;;;;5028358;28;20480;-51
2022/07/18 06:35:12;;;;;;;2.50;2.27;;;17.90;90.20;;;;;;5029364;28;20529;-50
2022/07/18 06:37:39;;;;;;;4.40;2.17;;;18.00;90.70;;;;;;5023011;28;20459;-50
2022/07/18 06:40:07;;;;;;;3.37;2.30;;;18.10;96.60;;;;;;5029879;28;20479;-50
2022/07/18 06:42:34;;;;;;;2.60;1.77;;;18.10;99.90;;;;;;5032870;28;20451;-50
2022/07/18 06:45:00;;;;;;;3.90;2.30;;;18.20;99.90;;;;;;5029465;28;20455;-51
2022/07/18 06:47:28;;;;;;;2.00;1.90;;;18.30;99.90;;;;;;5028745;28;20479;-51
2022/07/18 06:49:55;;;;;;;3.83;1.90;;;18.40;99.90;;;;;;5037068;28;20535;-50
2022/07/18 06:52:22;;;;;;;6.03;2.23;;;18.50;99.90;;;;;;5028129;28;20866;-50
2022/07/18 06:54:48;;;;;;;4.40;2.27;;;18.60;99.90;;;;;;5031151;28;20466;-50
2022/07/18 06:57:15;;;;;;;6.30;2.47;;;18.70;99.90;;;;;;5028562;28;20459;-50
2022/07/18 06:59:42;;;;;;;3.00;1.90;;;18.90;99.90;;;;;;5033708;28;20442;-49
2022/07/18 07:02:09;;;;;;;3.47;2.00;;;18.90;99.90;;;;;;5038505;28;20516;-49
2022/07/18 07:04:36;;;;;;;8.20;2.07;;;19.10;99.90;;;;;;5029251;28;20540;-50
2022/07/18 07:07:03;;;;;;;4.63;1.97;;;19.10;99.90;;;;;;5032016;28;20898;-50
2022/07/18 07:09:30;;;;;;;4.70;2.03;;;19.20;99.90;;;;;;5034616;28;20497;-49
2022/07/18 07:11:56;;;;;;;5.60;2.10;;;19.30;99.90;;;;;;5033190;28;20873;-50
2022/07/18 07:14:23;;;;;;;3.93;2.10;;;19.40;99.90;;;;;;5032181;28;20442;-50
2022/07/18 07:16:49;;;;;;;1.80;1.70;;;19.40;99.90;;;;;;5041403;28;20465;-50
2022/07/18 07:19:17;;;;;;;2.87;2.30;;;19.50;99.90;;;;;;5047964;28;20442;-50
2022/07/18 07:21:45;;;;;;;2.60;1.87;;;19.60;99.90;;;;;;5030518;28;20494;-51
2022/07/18 07:24:11;;;;;;;1.77;1.60;;;19.70;99.90;;;;;;5033221;28;20459;-49
2022/07/18 07:26:38;;;;;;;4.57;2.27;;;19.80;99.90;;;;;;5031758;28;20475;-49
2022/07/18 07:29:04;;;;;;;3.40;1.97;;;20.00;99.90;;;;;;5040500;28;20483;-50
2022/07/18 07:31:31;;;;;;;3.80;2.70;;;20.20;99.90;;;;;;5039985;28;20482;-50
2022/07/18 07:33:58;;;;;;;3.73;2.00;;;20.20;99.90;;;;;;5043905;28;20495;-49
2022/07/18 07:36:24;;;;;;;14.97;2.03;;;20.30;99.90;;;;;;5041376;28;20520;-50
2022/07/18 07:38:52;;;;;;;3.77;1.80;;;20.30;99.90;;;;;;5028810;28;21025;-50
2022/07/18 07:41:19;;;;;;;7.37;1.60;;;20.40;99.90;;;;;;5034596;28;20490;-50
2022/07/18 07:43:45;;;;;;;4.40;2.40;;;20.50;99.90;;;;;;5033940;28;20509;-49
2022/07/18 07:46:12;;;;;;;2.90;2.20;;;20.50;99.90;;;;;;5053739;28;20446;-50
2022/07/18 07:48:39;;;;;;;5.10;2.00;;;20.60;99.90;;;;;;5049761;28;20485;-50
2022/07/18 07:51:06;;;;;;;5.03;1.97;;;20.70;99.90;;;;;;5032957;28;20520;-49
2022/07/18 07:53:33;;;;;;;3.40;1.83;;;20.80;99.90;;;;;;5030725;28;20552;-50
2022/07/18 07:56:01;;;;;;;9.53;1.90;;;21.00;99.90;;;;;;5027722;28;20463;-50
2022/07/18 07:58:27;;;;;;;2.90;1.60;;;21.10;99.90;;;;;;5032540;28;20459;-50
2022/07/18 08:00:54;;;;;;;2.53;2.33;;;21.20;99.90;;;;;;5045518;28;20995;-49
2022/07/18 08:03:21;;;;;;;1.83;1.73;;;21.20;99.90;;;;;;5038037;28;20443;-50
2022/07/18 08:05:49;;;;;;;3.43;2.60;;;21.20;99.90;;;;;;5043236;28;20462;-49
2022/07/18 08:08:16;;;;;;;2.70;2.03;;;21.30;99.90;;;;;;5028083;28;20479;-50
2022/07/18 08:10:44;;;;;;;2.10;1.70;;;21.50;99.90;;;;;;5038676;28;20482;-50
2022/07/18 08:13:13;;;;;;;2.80;1.80;;;21.60;99.90;;;;;;5028364;28;20953;-50
2022/07/18 08:15:40;;;;;;;4.63;1.97;;;21.70;99.90;;;;;;5041524;28;20472;-50
2022/07/18 08:18:07;;;;;;;2.37;2.17;;;21.90;99.90;;;;;;5045209;28;20467;-50
2022/07/18 08:20:34;;;;;;;2.50;2.30;;;21.90;1.40;;;;;;5029967;28;20548;-49
2022/07/18 08:23:03;;;;;;;4.93;2.30;;;22.10;99.90;;;;;;5032049;28;20816;-50
2022/07/18 08:25:33;;;;;;;4.43;3.13;;;22.20;1.40;;;;;;5032546;28;20508;-49
2022/07/18 08:28:01;;;;;;;11.00;2.40;;;22.30;99.90;;;;;;5027984;28;20478;-49
2022/07/18 08:30:31;;;;;;;6.60;2.27;;;22.30;99.90;;;;;;5030651;28;20471;-50
2022/07/18 08:32:58;;;;;;;3.27;2.43;;;22.20;99.90;;;;;;5041994;28;20438;-49
2022/07/18 08:35:25;;;;;;;2.57;2.17;;;22.10;99.90;;;;;;5039290;28;20455;-49
2022/07/18 08:37:51;;;;;;;4.80;2.70;;;22.10;99.90;;;;;;5027846;28;20455;-50
2022/07/18 08:40:18;;;;;;;7.10;3.30;;;22.10;99.90;;;;;;5031541;28;20483;-50
2022/07/18 08:42:45;;;;;;;6.70;2.80;;;22.20;99.90;;;;;;5038028;28;20469;-49
2022/07/18 08:45:11;;;;;;;2.60;2.30;;;22.30;99.90;;;;;;5044626;28;20442;-50
2022/07/18 08:47:39;;;;;;;3.83;2.23;;;22.50;99.90;;;;;;5031082;28;20517;-49
2022/07/18 08:50:08;;;;;;;3.33;2.27;;;22.60;99.90;;;;;;5040754;28;20489;-49
2022/07/18 08:52:37;;;;;;;3.00;2.20;;;22.80;99.90;;;;;;5034432;28;20605;-50
2022/07/18 08:55:04;;;;;;;2.40;1.90;;;22.90;99.90;;;;;;5037714;28;20877;-50
2022/07/18 08:57:31;;;;;;;2.90;2.10;;;23.00;99.90;;;;;;5041924;28;20450;-49
2022/07/18 08:59:58;;;;;;;4.03;2.60;;;23.00;99.90;;;;;;5028770;28;20486;-50
2022/07/18 09:02:26;;;;;;;5.60;2.87;;;23.10;99.90;;;;;;5045388;28;20882;-50
2022/07/18 09:04:54;;;;;;;6.33;2.63;;;23.10;99.90;;;;;;5045024;28;20467;-50
2022/07/18 09:07:27;;;;;;;3.80;2.50;;;23.00;99.90;;;;;;5029900;28;20458;-50
2022/07/18 09:09:56;;;;;;;4.17;2.70;;;23.20;99.90;;;;;;5031117;28;20518;-50
2022/07/18 09:12:23;;;;;;;7.50;3.60;;;23.50;99.90;;;;;;5039966;28;20465;-49
2022/07/18 09:14:49;;;;;;;3.77;2.83;;;23.70;99.90;;;;;;5027693;28;20525;-49
2022/07/18 09:17:18;;;;;;;5.23;2.63;;;23.80;99.90;;;;;;5044245;28;20858;-50
2022/07/18 09:20:00;;;;;;;3.50;2.23;;;23.80;99.90;;;;;;5053724;23;20503;-52
2022/07/18 09:22:28;;;;;;;2.73;2.53;;;23.80;99.90;;;;;;5028375;28;20481;-52
2022/07/18 09:24:58;;;;;;;5.37;2.80;;;23.70;99.90;;;;;;5027678;28;21031;-53
2022/07/18 09:27:27;;;;;;;3.30;2.80;;;23.70;99.90;;;;;;5032217;28;20439;-53
2022/07/18 09:30:16;;;;;;;4.67;2.60;;;23.60;99.90;;;;;;5029833;28;20996;-52
2022/07/18 09:32:44;;;;;;;3.43;2.70;;;23.50;99.90;;;;;;5027792;28;20466;-52
2022/07/18 09:35:14;;;;;;;3.07;2.13;;;23.50;99.90;;;;;;5030846;28;20611;-52
2022/07/18 09:37:52;;;;;;;4.30;2.30;;;23.50;99.90;;;;;;5030060;28;20955;-51
2022/07/18 09:40:21;;;;;;;4.20;2.43;;;23.50;99.90;;;;;;5023120;28;20482;-52
2022/07/18 09:42:51;;;;;;;7.00;2.47;;;23.50;99.90;;;;;;5027002;28;20470;-52
2022/07/18 09:45:23;;;;;;;5.17;1.83;;;23.50;99.90;;;;;;5029690;28;20550;-52
2022/07/18 09:47:51;;;;;;;5.67;3.03;;;23.60;99.90;;;;;;5028585;28;20521;-51
2022/07/18 09:50:26;;;;;;;2.47;2.20;;;23.60;99.90;;;;;;5030892;28;20493;-53
2022/07/18 09:53:04;;;;;;;2.43;2.13;;;23.70;99.90;;;;;;5026397;28;20955;-52
2022/07/18 09:55:31;;;;;;;3.30;2.70;;;23.70;99.90;;;;;;5031734;28;20439;-51
2022/07/18 09:58:02;;;;;;;2.50;2.30;;;23.80;99.90;;;;;;5029119;28;20490;-52
2022/07/18 10:00:32;;;;;;;9.63;3.80;;;23.80;99.90;;;;;;5020173;28;20493;-51
2022/07/18 10:03:00;;;;;;;2.20;2.10;;;23.80;99.90;;;;;;5028143;28;20462;-51
2022/07/18 10:05:30;;;;;;;2.53;2.23;;;24.00;99.90;;;;;;5030823;28;20637;-51
2022/07/18 10:07:58;;;;;;;3.13;2.37;;;24.10;99.90;;;;;;5030948;28;20466;-52
2022/07/18 10:10:25;;;;;;;2.60;2.40;;;24.10;99.90;;;;;;5030427;28;21213;-53
2022/07/18 10:12:54;;;;;;;3.73;2.53;;;24.00;99.90;;;;;;5028600;28;20988;-52
2022/07/18 10:15:23;;;;;;;2.17;1.90;;;24.00;99.90;;;;;;5027120;28;20521;-51
2022/07/18 10:17:50;;;;;;;2.90;2.60;;;23.90;99.90;;;;;;5031325;28;20578;-51
2022/07/18 10:20:17;;;;;;;2.67;2.47;;;23.90;99.90;;;;;;5030351;28;20545;-52
2022/07/18 10:22:46;;;;;;;2.53;2.33;;;23.90;99.90;;;;;;5028866;28;20497;-50
2022/07/18 10:25:14;;;;;;;4.70;2.77;;;23.80;99.90;;;;;;5028538;28;20463;-52
2022/07/18 10:27:51;;;;;;;4.00;2.23;;;23.70;99.90;;;;;;5025832;28;20473;-52
2022/07/18 10:30:19;;;;;;;4.90;2.30;;;23.80;99.90;;;;;;5025711;28;20493;-51
2022/07/18 10:32:48;;;;;;;4.00;2.20;;;23.80;99.90;;;;;;5028948;28;20464;-51
2022/07/18 10:35:16;;;;;;;3.13;2.77;;;23.80;99.90;;;;;;5031604;28;20463;-52
2022/07/18 10:37:45;;;;;;;2.60;2.40;;;23.80;99.90;;;;;;5033617;28;20520;-52
2022/07/18 10:40:26;;;;;;;4.50;3.00;;;23.90;99.90;;;;;;5033605;28;20988;-53
2022/07/18 10:43:31;;;;;;;4.30;3.00;;;24.00;99.90;;;;;;5033539;28;20466;-53
2022/07/18 10:45:58;;;;;;;3.40;3.10;;;24.10;99.90;;;;;;5026806;28;20481;-53
2022/07/18 10:48:58;;;;;;;5.73;2.90;;;24.20;99.90;;;;;;5030079;28;20475;-52
2022/07/18 10:51:35;;;;;;;4.93;2.60;;;24.30;99.90;;;;;;4972252;28;20995;-52
2022/07/18 10:54:09;;;;;;;3.93;3.20;;;24.50;99.90;;;;;;4973390;28;20463;-52
2022/07/18 10:57:07;;;;;;;3.40;2.97;;;24.50;99.90;;;;;;5005666;28;20461;-53
2022/07/18 10:59:35;;;;;;;3.37;2.87;;;24.70;99.90;;;;;;5028674;28;20489;-51
2022/07/18 11:02:05;;;;;;;5.23;2.90;;;24.80;99.90;;;;;;5032713;28;20963;-52
2022/07/18 11:04:36;;;;;;;3.67;3.13;;;25.00;99.90;;;;;;5033524;28;20454;-52
2022/07/18 11:07:05;;;;;;;2.10;2.00;;;25.10;99.90;;;;;;5027866;28;20990;-52
2022/07/18 11:09:37;;;;;;;4.83;2.80;;;25.10;99.90;;;;;;5032837;28;20490;-52
2022/07/18 11:12:26;;;;;;;2.80;2.57;;;25.20;99.90;;;;;;5025966;28;20439;-52
2022/07/18 11:15:12;;;;;;;3.93;2.80;;;25.30;99.90;;;;;;5032218;28;20458;-51
2022/07/18 11:17:59;;;;;;;3.13;2.87;;;25.30;99.90;;;;;;5032521;28;20473;-53
2022/07/18 11:20:38;;;;;;;3.23;2.93;;;25.30;99.90;;;;;;5031405;28;20855;-52
2022/07/18 11:23:16;;;;;;;4.50;2.57;;;25.40;99.90;;;;;;5025713;28;20501;-52
2022/07/18 11:25:47;;;;;;;6.23;2.77;;;25.40;99.90;;;;;;5031931;28;20513;-53
2022/07/18 11:28:14;;;;;;;3.03;2.73;;;25.40;99.90;;;;;;5034336;28;20470;-53
2022/07/18 11:30:42;;;;;;;4.37;2.97;;;25.50;99.90;;;;;;5030873;28;20540;-52
2022/07/18 11:33:22;;;;;;;4.30;2.90;;;25.60;99.90;;;;;;5031993;28;20459;-51
2022/07/18 11:35:49;;;;;;;4.70;2.73;;;25.60;99.90;;;;;;5033215;28;20487;-52
2022/07/18 11:38:16;;;;;;;3.70;2.70;;;25.70;99.90;;;;;;5032617;28;20879;-51
2022/07/18 11:40:51;;;;;;;3.00;2.80;;;25.70;99.90;;;;;;5032830;28;20490;-53
2022/07/18 11:43:23;;;;;;;4.23;2.80;;;25.90;99.90;;;;;;5034124;28;20446;-52
2022/07/18 11:45:59;;;;;;;4.60;2.60;;;26.00;99.90;;;;;;5032635;28;20521;-52
2022/07/18 11:48:26;;;;;;;8.87;3.03;;;26.10;99.90;;;;;;5026276;28;20575;-51
2022/07/18 11:50:52;;;;;;;9.03;2.47;;;26.20;99.90;;;;;;5031363;28;20490;-53
2022/07/18 11:53:19;;;;;;;5.33;2.97;;;26.30;99.90;;;;;;5032303;28;20467;-50
2022/07/18 11:55:46;;;;;;;4.60;2.70;;;26.50;99.90;;;;;;5034036;28;20447;-52
2022/07/18 11:58:15;;;;;;;5.07;2.93;;;26.50;99.90;;;;;;5029189;28;20525;-53
2022/07/18 12:00:43;;;;;;;8.03;2.80;;;26.50;99.90;;;;;;5030939;28;21049;-53
2022/07/18 12:03:12;;;;;;;10.60;4.20;;;26.40;99.90;;;;;;5030493;28;20460;-56
2022/07/18 12:05:41;;;;;;;2.73;2.50;;;26.40;99.90;;;;;;5031511;28;20936;-52
2022/07/18 12:08:34;;;;;;;2.93;2.60;;;26.30;99.90;;;;;;5033757;28;20451;-52
2022/07/18 12:11:12;;;;;;;4.40;2.50;;;26.30;99.90;;;;;;5029116;28;20478;-51
2022/07/18 12:13:52;;;;;;;6.93;4.00;;;26.20;99.90;;;;;;5032204;28;20951;-53
2022/07/18 12:16:31;;;;;;;3.30;2.50;;;26.10;99.90;;;;;;5032386;28;20469;-53
2022/07/18 12:18:59;;;;;;;3.03;2.70;;;26.10;99.90;;;;;;5030465;28;21067;-52
2022/07/18 12:21:40;;;;;;;2.90;2.40;;;26.10;99.90;;;;;;5031093;28;20483;-53
2022/07/18 12:24:24;;;;;;;2.90;2.63;;;26.10;99.90;;;;;;5013472;28;20969;-52
2022/07/18 12:27:07;;;;;;;6.10;2.70;;;26.10;99.90;;;;;;5019070;28;20446;-52
2022/07/18 12:29:58;;;;;;;4.90;2.57;;;26.10;99.90;;;;;;5029416;28;20482;-51
2022/07/18 12:32:26;;;;;;;2.93;2.50;;;26.10;99.90;;;;;;5027019;28;20485;-52
2022/07/18 12:34:56;;;;;;;2.83;2.30;;;26.10;99.90;;;;;;5030475;28;20467;-53
2022/07/18 12:37:25;;;;;;;4.93;4.10;;;26.00;99.90;;;;;;5031194;28;20463;-53
2022/07/18 12:39:57;;;;;;;3.30;3.00;;;26.00;99.90;;;;;;5030804;28;20506;-52
2022/07/18 12:42:29;;;;;;;6.97;3.17;;;25.90;99.90;;;;;;5031093;28;20443;-53
2022/07/18 12:44:57;;;;;;;2.50;2.30;;;25.90;99.90;;;;;;5030740;28;20549;-52
2022/07/18 12:47:24;;;;;;;5.43;2.57;;;25.90;99.90;;;;;;5032597;28;20462;-52
2022/07/18 12:49:50;;;;;;;4.70;2.73;;;25.90;99.90;;;;;;5030940;28;20490;-52
2022/07/18 12:52:18;;;;;;;3.43;2.70;;;25.90;99.90;;;;;;5031006;28;20812;-52